sensor_id;sensor_type;location;lat;lon;timestamp;P1;durP1;ratioP1;P2;durP2;ratioP2
20154;SDS011;10238;49.556;10.956;2023-05-16T00:01:24;5.63;;;5.13;;
20154;SDS011;10238;49.556;10.956;2023-05-16T00:04:16;5.78;;;5.28;;
20154;SDS011;10238;49.556;10.956;2023-05-16T00:07:04;5.38;;;4.88;;
20154;SDS011;10238;49.556;10.956;2023-05-16T00:09:51;5.80;;;5.20;;
20154;SDS011;10238;49.556;10.956;2023-05-16T00:12:42;5.53;;;5.03;;
20154;SDS011;10238;49.556;10.956;2023-05-16T00:15:29;5.03;;;4.63;;
20154;SDS011;10238;49.556;10.956;2023-05-16T00:18:17;6.68;;;5.25;;
20154;SDS011;10238;49.556;10.956;2023-05-16T00:21:08;5.40;;;4.90;;
20154;SDS011;10238;49.556;10.956;2023-05-16T00:23:55;6.05;;;5.00;;
20154;SDS011;10238;49.556;10.956;2023-05-16T00:26:43;5.65;;;5.15;;
20154;SDS011;10238;49.556;10.956;2023-05-16T00:29:31;5.25;;;4.85;;
20154;SDS011;10238;49.556;10.956;2023-05-16T00:32:18;5.65;;;5.15;;
20154;SDS011;10238;49.556;10.956;2023-05-16T00:35:06;5.57;;;5.07;;
20154;SDS011;10238;49.556;10.956;2023-05-16T00:37:57;6.35;;;4.90;;
20154;SDS011;10238;49.556;10.956;2023-05-16T00:40:51;6.53;;;5.47;;
20154;SDS011;10238;49.556;10.956;2023-05-16T00:43:39;5.13;;;4.63;;
20154;SDS011;10238;49.556;10.956;2023-05-16T00:46:27;5.68;;;5.10;;
20154;SDS011;10238;49.556;10.956;2023-05-16T00:49:14;6.20;;;5.30;;
20154;SDS011;10238;49.556;10.956;2023-05-16T00:52:02;5.90;;;5.40;;
20154;SDS011;10238;49.556;10.956;2023-05-16T00:54:52;6.43;;;5.78;;
20154;SDS011;10238;49.556;10.956;2023-05-16T00:57:40;6.53;;;5.72;;
20154;SDS011;10238;49.556;10.956;2023-05-16T01:00:30;7.00;;;5.97;;
20154;SDS011;10238;49.556;10.956;2023-05-16T01:03:18;6.97;;;6.38;;
20154;SDS011;10238;49.556;10.956;2023-05-16T01:06:06;7.45;;;6.35;;
20154;SDS011;10238;49.556;10.956;2023-05-16T01:08:53;6.50;;;5.90;;
20154;SDS011;10238;49.556;10.956;2023-05-16T01:11:45;7.25;;;5.95;;
20154;SDS011;10238;49.556;10.956;2023-05-16T01:14:45;6.78;;;5.72;;
20154;SDS011;10238;49.556;10.956;2023-05-16T01:17:49;6.20;;;5.65;;
20154;SDS011;10238;49.556;10.956;2023-05-16T01:20:48;6.00;;;5.40;;
20154;SDS011;10238;49.556;10.956;2023-05-16T01:23:46;6.93;;;5.65;;
20154;SDS011;10238;49.556;10.956;2023-05-16T01:26:44;8.73;;;6.00;;
20154;SDS011;10238;49.556;10.956;2023-05-16T01:29:33;6.47;;;5.60;;
20154;SDS011;10238;49.556;10.956;2023-05-16T01:32:21;6.15;;;5.65;;
20154;SDS011;10238;49.556;10.956;2023-05-16T01:35:10;5.93;;;5.18;;
20154;SDS011;10238;49.556;10.956;2023-05-16T01:38:03;6.50;;;5.85;;
20154;SDS011;10238;49.556;10.956;2023-05-16T01:41:01;6.32;;;5.68;;
20154;SDS011;10238;49.556;10.956;2023-05-16T01:44:00;6.75;;;6.03;;
20154;SDS011;10238;49.556;10.956;2023-05-16T01:47:02;5.65;;;5.15;;
20154;SDS011;10238;49.556;10.956;2023-05-16T01:50:02;6.38;;;5.55;;
20154;SDS011;10238;49.556;10.956;2023-05-16T01:52:57;6.70;;;6.10;;
20154;SDS011;10238;49.556;10.956;2023-05-16T01:55:50;8.10;;;5.93;;
20154;SDS011;10238;49.556;10.956;2023-05-16T01:58:40;7.03;;;6.32;;
20154;SDS011;10238;49.556;10.956;2023-05-16T02:01:33;7.90;;;6.60;;
20154;SDS011;10238;49.556;10.956;2023-05-16T02:04:21;6.10;;;5.40;;
20154;SDS011;10238;49.556;10.956;2023-05-16T02:07:09;6.40;;;5.80;;
20154;SDS011;10238;49.556;10.956;2023-05-16T02:09:57;6.43;;;5.90;;
20154;SDS011;10238;49.556;10.956;2023-05-16T02:12:45;6.90;;;5.50;;
20154;SDS011;10238;49.556;10.956;2023-05-16T02:15:32;6.55;;;5.85;;
20154;SDS011;10238;49.556;10.956;2023-05-16T02:18:21;8.05;;;6.53;;
20154;SDS011;10238;49.556;10.956;2023-05-16T02:21:09;7.47;;;6.80;;
20154;SDS011;10238;49.556;10.956;2023-05-16T02:23:56;7.00;;;6.35;;
20154;SDS011;10238;49.556;10.956;2023-05-16T02:26:44;6.75;;;6.15;;
20154;SDS011;10238;49.556;10.956;2023-05-16T02:29:31;6.65;;;6.05;;
20154;SDS011;10238;49.556;10.956;2023-05-16T02:32:19;7.88;;;5.80;;
20154;SDS011;10238;49.556;10.956;2023-05-16T02:35:08;6.30;;;5.72;;
20154;SDS011;10238;49.556;10.956;2023-05-16T02:37:57;6.30;;;5.70;;
20154;SDS011;10238;49.556;10.956;2023-05-16T02:40:46;6.97;;;6.20;;
20154;SDS011;10238;49.556;10.956;2023-05-16T02:43:34;6.32;;;5.72;;
20154;SDS011;10238;49.556;10.956;2023-05-16T02:46:22;8.57;;;7.78;;
20154;SDS011;10238;49.556;10.956;2023-05-16T02:49:12;6.65;;;6.05;;
20154;SDS011;10238;49.556;10.956;2023-05-16T02:52:01;13.75;;;6.63;;
20154;SDS011;10238;49.556;10.956;2023-05-16T02:54:49;6.78;;;6.07;;
20154;SDS011;10238;49.556;10.956;2023-05-16T02:57:39;6.63;;;6.13;;
20154;SDS011;10238;49.556;10.956;2023-05-16T03:00:28;5.93;;;5.43;;
20154;SDS011;10238;49.556;10.956;2023-05-16T03:03:16;6.55;;;6.05;;
20154;SDS011;10238;49.556;10.956;2023-05-16T03:06:04;6.72;;;6.13;;
20154;SDS011;10238;49.556;10.956;2023-05-16T03:08:53;7.78;;;6.35;;
20154;SDS011;10238;49.556;10.956;2023-05-16T03:11:41;6.93;;;6.32;;
20154;SDS011;10238;49.556;10.956;2023-05-16T03:14:28;7.32;;;6.80;;
20154;SDS011;10238;49.556;10.956;2023-05-16T03:17:16;7.53;;;6.93;;
20154;SDS011;10238;49.556;10.956;2023-05-16T03:20:04;8.18;;;7.47;;
20154;SDS011;10238;49.556;10.956;2023-05-16T03:22:53;7.88;;;7.25;;
20154;SDS011;10238;49.556;10.956;2023-05-16T03:25:42;8.00;;;7.30;;
20154;SDS011;10238;49.556;10.956;2023-05-16T03:28:31;7.75;;;7.15;;
20154;SDS011;10238;49.556;10.956;2023-05-16T03:31:18;7.97;;;7.38;;
20154;SDS011;10238;49.556;10.956;2023-05-16T03:34:06;8.02;;;7.32;;
20154;SDS011;10238;49.556;10.956;2023-05-16T03:36:54;7.97;;;7.28;;
20154;SDS011;10238;49.556;10.956;2023-05-16T03:39:42;8.15;;;7.55;;
20154;SDS011;10238;49.556;10.956;2023-05-16T03:42:31;8.48;;;7.65;;
20154;SDS011;10238;49.556;10.956;2023-05-16T03:45:19;8.70;;;7.88;;
20154;SDS011;10238;49.556;10.956;2023-05-16T03:48:07;8.13;;;7.43;;
20154;SDS011;10238;49.556;10.956;2023-05-16T03:50:55;8.88;;;7.75;;
20154;SDS011;10238;49.556;10.956;2023-05-16T03:53:43;10.25;;;8.15;;
20154;SDS011;10238;49.556;10.956;2023-05-16T03:56:30;7.45;;;6.75;;
20154;SDS011;10238;49.556;10.956;2023-05-16T03:59:19;9.40;;;8.40;;
20154;SDS011;10238;49.556;10.956;2023-05-16T04:02:07;6.43;;;5.75;;
20154;SDS011;10238;49.556;10.956;2023-05-16T04:04:55;7.68;;;6.93;;
20154;SDS011;10238;49.556;10.956;2023-05-16T04:07:43;8.23;;;6.93;;
20154;SDS011;10238;49.556;10.956;2023-05-16T04:10:31;6.85;;;6.25;;
20154;SDS011;10238;49.556;10.956;2023-05-16T04:13:18;7.22;;;6.45;;
20154;SDS011;10238;49.556;10.956;2023-05-16T04:16:07;6.43;;;5.70;;
20154;SDS011;10238;49.556;10.956;2023-05-16T04:18:55;6.68;;;5.90;;
20154;SDS011;10238;49.556;10.956;2023-05-16T04:21:43;6.78;;;6.18;;
20154;SDS011;10238;49.556;10.956;2023-05-16T04:24:31;6.68;;;5.97;;
20154;SDS011;10238;49.556;10.956;2023-05-16T04:27:19;6.57;;;5.70;;
20154;SDS011;10238;49.556;10.956;2023-05-16T04:30:07;6.63;;;6.03;;
20154;SDS011;10238;49.556;10.956;2023-05-16T04:32:58;7.78;;;6.30;;
20154;SDS011;10238;49.556;10.956;2023-05-16T04:35:46;7.30;;;6.60;;
20154;SDS011;10238;49.556;10.956;2023-05-16T04:38:34;6.88;;;6.18;;
20154;SDS011;10238;49.556;10.956;2023-05-16T04:41:31;7.15;;;6.47;;
20154;SDS011;10238;49.556;10.956;2023-05-16T04:44:20;7.53;;;6.88;;
20154;SDS011;10238;49.556;10.956;2023-05-16T04:47:08;7.60;;;6.97;;
20154;SDS011;10238;49.556;10.956;2023-05-16T04:49:57;7.63;;;6.93;;
20154;SDS011;10238;49.556;10.956;2023-05-16T04:52:44;7.85;;;7.15;;
20154;SDS011;10238;49.556;10.956;2023-05-16T04:55:32;6.88;;;6.28;;
20154;SDS011;10238;49.556;10.956;2023-05-16T04:58:20;6.18;;;5.70;;
20154;SDS011;10238;49.556;10.956;2023-05-16T05:01:08;6.68;;;6.05;;
20154;SDS011;10238;49.556;10.956;2023-05-16T05:03:56;7.15;;;6.53;;
20154;SDS011;10238;49.556;10.956;2023-05-16T05:06:45;10.43;;;6.57;;
20154;SDS011;10238;49.556;10.956;2023-05-16T05:09:33;7.85;;;7.07;;
20154;SDS011;10238;49.556;10.956;2023-05-16T05:12:20;10.77;;;7.57;;
20154;SDS011;10238;49.556;10.956;2023-05-16T05:15:08;8.18;;;7.38;;
20154;SDS011;10238;49.556;10.956;2023-05-16T05:17:56;11.93;;;7.65;;
20154;SDS011;10238;49.556;10.956;2023-05-16T05:20:45;8.32;;;7.55;;
20154;SDS011;10238;49.556;10.956;2023-05-16T05:23:33;8.88;;;7.97;;
20154;SDS011;10238;49.556;10.956;2023-05-16T05:26:21;8.48;;;7.55;;
20154;SDS011;10238;49.556;10.956;2023-05-16T05:29:10;8.90;;;7.97;;
20154;SDS011;10238;49.556;10.956;2023-05-16T05:31:58;8.93;;;8.02;;
20154;SDS011;10238;49.556;10.956;2023-05-16T05:34:46;9.15;;;8.25;;
20154;SDS011;10238;49.556;10.956;2023-05-16T05:37:34;9.10;;;8.20;;
20154;SDS011;10238;49.556;10.956;2023-05-16T05:40:23;9.00;;;8.10;;
20154;SDS011;10238;49.556;10.956;2023-05-16T05:43:10;9.90;;;8.60;;
20154;SDS011;10238;49.556;10.956;2023-05-16T05:45:58;9.15;;;8.23;;
20154;SDS011;10238;49.556;10.956;2023-05-16T05:48:46;10.20;;;8.10;;
20154;SDS011;10238;49.556;10.956;2023-05-16T05:51:34;8.88;;;7.90;;
20154;SDS011;10238;49.556;10.956;2023-05-16T05:54:25;10.82;;;8.40;;
20154;SDS011;10238;49.556;10.956;2023-05-16T05:57:14;9.25;;;8.02;;
20154;SDS011;10238;49.556;10.956;2023-05-16T06:00:02;10.63;;;9.52;;
20154;SDS011;10238;49.556;10.956;2023-05-16T06:02:51;10.43;;;9.13;;
20154;SDS011;10238;49.556;10.956;2023-05-16T06:05:41;9.80;;;8.77;;
20154;SDS011;10238;49.556;10.956;2023-05-16T06:08:29;10.65;;;9.65;;
20154;SDS011;10238;49.556;10.956;2023-05-16T06:11:21;10.18;;;8.13;;
20154;SDS011;10238;49.556;10.956;2023-05-16T06:14:15;8.93;;;7.70;;
20154;SDS011;10238;49.556;10.956;2023-05-16T06:17:03;11.23;;;7.20;;
20154;SDS011;10238;49.556;10.956;2023-05-16T06:19:51;11.80;;;10.80;;
20154;SDS011;10238;49.556;10.956;2023-05-16T06:22:39;9.40;;;7.57;;
20154;SDS011;10238;49.556;10.956;2023-05-16T06:25:32;8.27;;;7.07;;
20154;SDS011;10238;49.556;10.956;2023-05-16T06:28:20;8.02;;;7.20;;
20154;SDS011;10238;49.556;10.956;2023-05-16T06:31:10;8.52;;;7.47;;
20154;SDS011;10238;49.556;10.956;2023-05-16T06:33:58;9.18;;;8.32;;
20154;SDS011;10238;49.556;10.956;2023-05-16T06:36:45;9.00;;;8.20;;
20154;SDS011;10238;49.556;10.956;2023-05-16T06:39:33;8.82;;;8.00;;
20154;SDS011;10238;49.556;10.956;2023-05-16T06:42:21;11.13;;;8.40;;
20154;SDS011;10238;49.556;10.956;2023-05-16T06:45:09;8.32;;;7.63;;
20154;SDS011;10238;49.556;10.956;2023-05-16T06:48:01;9.15;;;8.05;;
20154;SDS011;10238;49.556;10.956;2023-05-16T06:50:50;8.95;;;7.65;;
20154;SDS011;10238;49.556;10.956;2023-05-16T06:53:40;8.38;;;6.82;;
20154;SDS011;10238;49.556;10.956;2023-05-16T06:56:29;10.88;;;7.60;;
20154;SDS011;10238;49.556;10.956;2023-05-16T06:59:24;11.48;;;8.93;;
20154;SDS011;10238;49.556;10.956;2023-05-16T07:02:12;9.00;;;7.70;;
20154;SDS011;10238;49.556;10.956;2023-05-16T07:05:05;9.73;;;7.85;;
20154;SDS011;10238;49.556;10.956;2023-05-16T07:07:53;9.07;;;8.27;;
20154;SDS011;10238;49.556;10.956;2023-05-16T07:10:41;8.45;;;7.57;;
20154;SDS011;10238;49.556;10.956;2023-05-16T07:13:29;9.00;;;8.20;;
20154;SDS011;10238;49.556;10.956;2023-05-16T07:16:20;8.88;;;7.97;;
20154;SDS011;10238;49.556;10.956;2023-05-16T07:19:08;8.73;;;7.57;;
20154;SDS011;10238;49.556;10.956;2023-05-16T07:21:57;7.80;;;7.00;;
20154;SDS011;10238;49.556;10.956;2023-05-16T07:24:45;9.77;;;8.95;;
20154;SDS011;10238;49.556;10.956;2023-05-16T07:27:33;10.75;;;9.93;;
20154;SDS011;10238;49.556;10.956;2023-05-16T07:30:23;10.00;;;9.18;;
20154;SDS011;10238;49.556;10.956;2023-05-16T07:33:11;10.13;;;9.27;;
20154;SDS011;10238;49.556;10.956;2023-05-16T07:35:59;9.05;;;7.55;;
20154;SDS011;10238;49.556;10.956;2023-05-16T07:39:03;10.07;;;7.45;;
20154;SDS011;10238;49.556;10.956;2023-05-16T07:41:51;13.35;;;12.35;;
20154;SDS011;10238;49.556;10.956;2023-05-16T07:44:39;14.63;;;13.55;;
20154;SDS011;10238;49.556;10.956;2023-05-16T07:47:26;10.60;;;9.85;;
20154;SDS011;10238;49.556;10.956;2023-05-16T07:50:14;9.70;;;8.77;;
20154;SDS011;10238;49.556;10.956;2023-05-16T07:53:02;7.97;;;7.28;;
20154;SDS011;10238;49.556;10.956;2023-05-16T07:55:51;7.15;;;6.40;;
20154;SDS011;10238;49.556;10.956;2023-05-16T07:58:39;8.48;;;7.68;;
20154;SDS011;10238;49.556;10.956;2023-05-16T08:01:28;9.45;;;8.57;;
20154;SDS011;10238;49.556;10.956;2023-05-16T08:04:16;12.20;;;11.27;;
20154;SDS011;10238;49.556;10.956;2023-05-16T08:07:04;9.30;;;8.60;;
20154;SDS011;10238;49.556;10.956;2023-05-16T08:09:52;7.60;;;6.63;;
20154;SDS011;10238;49.556;10.956;2023-05-16T08:12:41;7.47;;;6.88;;
20154;SDS011;10238;49.556;10.956;2023-05-16T08:15:29;8.80;;;7.68;;
20154;SDS011;10238;49.556;10.956;2023-05-16T08:18:17;7.40;;;6.70;;
20154;SDS011;10238;49.556;10.956;2023-05-16T08:21:07;7.65;;;6.95;;
20154;SDS011;10238;49.556;10.956;2023-05-16T08:23:55;6.97;;;6.28;;
20154;SDS011;10238;49.556;10.956;2023-05-16T08:26:42;7.00;;;6.40;;
20154;SDS011;10238;49.556;10.956;2023-05-16T08:29:34;12.48;;;9.30;;
20154;SDS011;10238;49.556;10.956;2023-05-16T08:32:22;13.90;;;13.00;;
20154;SDS011;10238;49.556;10.956;2023-05-16T08:35:10;13.68;;;12.57;;
20154;SDS011;10238;49.556;10.956;2023-05-16T08:37:58;13.15;;;11.93;;
20154;SDS011;10238;49.556;10.956;2023-05-16T08:40:45;10.98;;;9.82;;
20154;SDS011;10238;49.556;10.956;2023-05-16T08:43:33;8.88;;;7.93;;
20154;SDS011;10238;49.556;10.956;2023-05-16T08:46:22;8.93;;;8.02;;
20154;SDS011;10238;49.556;10.956;2023-05-16T08:49:12;9.05;;;8.25;;
20154;SDS011;10238;49.556;10.956;2023-05-16T08:52:06;9.50;;;8.52;;
20154;SDS011;10238;49.556;10.956;2023-05-16T08:54:55;8.60;;;7.90;;
20154;SDS011;10238;49.556;10.956;2023-05-16T08:57:50;7.57;;;6.85;;
20154;SDS011;10238;49.556;10.956;2023-05-16T09:00:38;8.50;;;7.68;;
20154;SDS011;10238;49.556;10.956;2023-05-16T09:03:28;8.50;;;7.60;;
20154;SDS011;10238;49.556;10.956;2023-05-16T09:06:16;8.05;;;7.25;;
20154;SDS011;10238;49.556;10.956;2023-05-16T09:09:04;9.73;;;7.40;;
20154;SDS011;10238;49.556;10.956;2023-05-16T09:11:53;9.00;;;8.07;;
20154;SDS011;10238;49.556;10.956;2023-05-16T09:14:40;9.80;;;8.07;;
20154;SDS011;10238;49.556;10.956;2023-05-16T09:17:36;10.77;;;8.40;;
20154;SDS011;10238;49.556;10.956;2023-05-16T09:20:29;10.02;;;8.07;;
20154;SDS011;10238;49.556;10.956;2023-05-16T09:23:17;10.18;;;9.13;;
20154;SDS011;10238;49.556;10.956;2023-05-16T09:26:10;9.57;;;8.68;;
20154;SDS011;10238;49.556;10.956;2023-05-16T09:28:58;9.23;;;8.32;;
20154;SDS011;10238;49.556;10.956;2023-05-16T09:31:48;9.40;;;8.40;;
20154;SDS011;10238;49.556;10.956;2023-05-16T09:34:42;10.00;;;8.98;;
20154;SDS011;10238;49.556;10.956;2023-05-16T09:37:34;9.30;;;8.60;;
20154;SDS011;10238;49.556;10.956;2023-05-16T09:40:22;9.57;;;8.63;;
20154;SDS011;10238;49.556;10.956;2023-05-16T09:43:10;8.95;;;8.25;;
20154;SDS011;10238;49.556;10.956;2023-05-16T09:46:03;10.05;;;8.88;;
20154;SDS011;10238;49.556;10.956;2023-05-16T09:48:51;9.35;;;8.43;;
20154;SDS011;10238;49.556;10.956;2023-05-16T09:51:39;10.45;;;9.60;;
20154;SDS011;10238;49.556;10.956;2023-05-16T09:54:32;9.27;;;8.48;;
20154;SDS011;10238;49.556;10.956;2023-05-16T09:57:20;9.27;;;8.48;;
20154;SDS011;10238;49.556;10.956;2023-05-16T10:00:12;9.73;;;8.77;;
20154;SDS011;10238;49.556;10.956;2023-05-16T10:03:01;9.73;;;8.82;;
20154;SDS011;10238;49.556;10.956;2023-05-16T10:05:51;9.23;;;8.32;;
20154;SDS011;10238;49.556;10.956;2023-05-16T10:08:41;9.07;;;8.27;;
20154;SDS011;10238;49.556;10.956;2023-05-16T10:11:30;8.10;;;7.32;;
20154;SDS011;10238;49.556;10.956;2023-05-16T10:14:18;9.68;;;8.77;;
20154;SDS011;10238;49.556;10.956;2023-05-16T10:17:09;10.02;;;9.13;;
20154;SDS011;10238;49.556;10.956;2023-05-16T10:20:02;10.20;;;9.50;;
20154;SDS011;10238;49.556;10.956;2023-05-16T10:22:54;9.82;;;8.95;;
20154;SDS011;10238;49.556;10.956;2023-05-16T10:25:44;11.40;;;10.38;;
20154;SDS011;10238;49.556;10.956;2023-05-16T10:28:35;11.32;;;10.43;;
20154;SDS011;10238;49.556;10.956;2023-05-16T10:31:25;9.93;;;9.18;;
20154;SDS011;10238;49.556;10.956;2023-05-16T10:34:15;9.77;;;9.07;;
20154;SDS011;10238;49.556;10.956;2023-05-16T10:37:03;9.63;;;8.75;;
20154;SDS011;10238;49.556;10.956;2023-05-16T10:39:52;9.93;;;8.43;;
20154;SDS011;10238;49.556;10.956;2023-05-16T10:42:43;8.73;;;8.02;;
20154;SDS011;10238;49.556;10.956;2023-05-16T10:45:45;9.50;;;8.80;;
20154;SDS011;10238;49.556;10.956;2023-05-16T10:48:41;9.60;;;8.70;;
20154;SDS011;10238;49.556;10.956;2023-05-16T10:51:32;8.75;;;8.05;;
20154;SDS011;10238;49.556;10.956;2023-05-16T10:54:24;7.65;;;7.18;;
20154;SDS011;10238;49.556;10.956;2023-05-16T10:57:25;8.25;;;7.70;;
20154;SDS011;10238;49.556;10.956;2023-05-16T11:00:14;7.80;;;7.15;;
20154;SDS011;10238;49.556;10.956;2023-05-16T11:03:18;7.63;;;6.95;;
20154;SDS011;10238;49.556;10.956;2023-05-16T11:06:13;7.70;;;7.10;;
20154;SDS011;10238;49.556;10.956;2023-05-16T11:09:23;7.55;;;6.70;;
20154;SDS011;10238;49.556;10.956;2023-05-16T11:12:12;6.25;;;5.65;;
20154;SDS011;10238;49.556;10.956;2023-05-16T11:15:00;5.85;;;5.22;;
20154;SDS011;10238;49.556;10.956;2023-05-16T11:18:04;5.97;;;4.10;;
20154;SDS011;10238;49.556;10.956;2023-05-16T11:21:01;4.47;;;4.07;;
20154;SDS011;10238;49.556;10.956;2023-05-16T11:27:18;5.75;;;5.32;;
20154;SDS011;10238;49.556;10.956;2023-05-16T11:30:12;6.10;;;5.10;;
20154;SDS011;10238;49.556;10.956;2023-05-16T11:33:04;5.22;;;4.82;;
20154;SDS011;10238;49.556;10.956;2023-05-16T11:36:05;8.00;;;6.68;;
20154;SDS011;10238;49.556;10.956;2023-05-16T11:39:04;6.45;;;5.85;;
20154;SDS011;10238;49.556;10.956;2023-05-16T11:41:54;5.43;;;4.95;;
20154;SDS011;10238;49.556;10.956;2023-05-16T11:44:42;8.35;;;7.63;;
20154;SDS011;10238;49.556;10.956;2023-05-16T11:47:31;8.07;;;7.50;;
20154;SDS011;10238;49.556;10.956;2023-05-16T11:50:18;11.38;;;10.68;;
20154;SDS011;10238;49.556;10.956;2023-05-16T11:53:09;10.52;;;9.80;;
20154;SDS011;10238;49.556;10.956;2023-05-16T11:55:58;10.50;;;9.80;;
20154;SDS011;10238;49.556;10.956;2023-05-16T11:58:47;10.82;;;10.13;;
20154;SDS011;10238;49.556;10.956;2023-05-16T12:01:36;11.10;;;10.40;;
20154;SDS011;10238;49.556;10.956;2023-05-16T12:04:25;9.88;;;9.18;;
20154;SDS011;10238;49.556;10.956;2023-05-16T12:07:14;9.50;;;8.90;;
20154;SDS011;10238;49.556;10.956;2023-05-16T12:10:05;7.70;;;7.03;;
20154;SDS011;10238;49.556;10.956;2023-05-16T12:12:54;7.43;;;6.90;;
20154;SDS011;10238;49.556;10.956;2023-05-16T12:15:44;8.85;;;7.40;;
20154;SDS011;10238;49.556;10.956;2023-05-16T12:18:32;8.60;;;7.53;;
20154;SDS011;10238;49.556;10.956;2023-05-16T12:21:27;6.43;;;5.82;;
20154;SDS011;10238;49.556;10.956;2023-05-16T12:24:15;6.30;;;5.80;;
20154;SDS011;10238;49.556;10.956;2023-05-16T12:27:04;6.47;;;5.88;;
20154;SDS011;10238;49.556;10.956;2023-05-16T12:29:57;5.80;;;5.30;;
20154;SDS011;10238;49.556;10.956;2023-05-16T12:32:44;7.38;;;6.80;;
20154;SDS011;10238;49.556;10.956;2023-05-16T12:35:38;7.47;;;6.72;;
20154;SDS011;10238;49.556;10.956;2023-05-16T12:38:28;7.43;;;6.82;;
20154;SDS011;10238;49.556;10.956;2023-05-16T12:41:16;6.80;;;6.30;;
20154;SDS011;10238;49.556;10.956;2023-05-16T12:44:09;12.73;;;11.63;;
20154;SDS011;10238;49.556;10.956;2023-05-16T12:46:59;10.25;;;9.45;;
20154;SDS011;10238;49.556;10.956;2023-05-16T12:49:48;5.32;;;4.93;;
20154;SDS011;10238;49.556;10.956;2023-05-16T12:52:36;8.18;;;7.40;;
20154;SDS011;10238;49.556;10.956;2023-05-16T12:55:24;6.07;;;5.63;;
20154;SDS011;10238;49.556;10.956;2023-05-16T12:58:12;6.47;;;5.97;;
20154;SDS011;10238;49.556;10.956;2023-05-16T13:01:02;8.68;;;6.28;;
20154;SDS011;10238;49.556;10.956;2023-05-16T13:03:50;15.10;;;13.88;;
20154;SDS011;10238;49.556;10.956;2023-05-16T13:06:38;25.63;;;24.23;;
20154;SDS011;10238;49.556;10.956;2023-05-16T13:09:36;24.30;;;22.35;;
20154;SDS011;10238;49.556;10.956;2023-05-16T13:12:26;10.40;;;9.57;;
20154;SDS011;10238;49.556;10.956;2023-05-16T13:15:14;18.75;;;17.25;;
20154;SDS011;10238;49.556;10.956;2023-05-16T13:18:04;18.08;;;16.98;;
20154;SDS011;10238;49.556;10.956;2023-05-16T13:20:51;13.30;;;12.40;;
20154;SDS011;10238;49.556;10.956;2023-05-16T13:23:39;5.65;;;5.15;;
20154;SDS011;10238;49.556;10.956;2023-05-16T13:26:27;3.75;;;3.05;;
20154;SDS011;10238;49.556;10.956;2023-05-16T13:29:15;3.67;;;3.35;;
20154;SDS011;10238;49.556;10.956;2023-05-16T13:32:02;4.30;;;4.00;;
20154;SDS011;10238;49.556;10.956;2023-05-16T13:34:53;3.22;;;3.00;;
20154;SDS011;10238;49.556;10.956;2023-05-16T13:37:41;3.00;;;2.80;;
20154;SDS011;10238;49.556;10.956;2023-05-16T13:40:28;3.50;;;2.97;;
20154;SDS011;10238;49.556;10.956;2023-05-16T13:43:17;5.57;;;3.15;;
20154;SDS011;10238;49.556;10.956;2023-05-16T13:46:05;5.97;;;3.22;;
20154;SDS011;10238;49.556;10.956;2023-05-16T13:48:53;2.90;;;2.70;;
20154;SDS011;10238;49.556;10.956;2023-05-16T13:51:42;2.90;;;2.70;;
20154;SDS011;10238;49.556;10.956;2023-05-16T13:54:30;2.88;;;2.58;;
20154;SDS011;10238;49.556;10.956;2023-05-16T13:57:18;3.28;;;3.00;;
20154;SDS011;10238;49.556;10.956;2023-05-16T14:00:15;3.33;;;2.63;;
20154;SDS011;10238;49.556;10.956;2023-05-16T14:03:23;3.70;;;2.60;;
20154;SDS011;10238;49.556;10.956;2023-05-16T14:06:11;4.10;;;2.83;;
20154;SDS011;10238;49.556;10.956;2023-05-16T14:09:00;2.88;;;2.67;;
20154;SDS011;10238;49.556;10.956;2023-05-16T14:11:49;2.88;;;2.63;;
20154;SDS011;10238;49.556;10.956;2023-05-16T14:14:37;2.42;;;2.30;;
20154;SDS011;10238;49.556;10.956;2023-05-16T14:17:25;3.95;;;2.35;;
20154;SDS011;10238;49.556;10.956;2023-05-16T14:20:12;3.05;;;2.38;;
20154;SDS011;10238;49.556;10.956;2023-05-16T14:23:00;3.20;;;2.42;;
20154;SDS011;10238;49.556;10.956;2023-05-16T14:25:50;2.60;;;2.40;;
20154;SDS011;10238;49.556;10.956;2023-05-16T14:28:38;2.15;;;2.00;;
20154;SDS011;10238;49.556;10.956;2023-05-16T14:31:28;2.60;;;2.40;;
20154;SDS011;10238;49.556;10.956;2023-05-16T14:34:17;2.75;;;2.55;;
20154;SDS011;10238;49.556;10.956;2023-05-16T14:37:07;3.60;;;3.30;;
20154;SDS011;10238;49.556;10.956;2023-05-16T14:40:04;3.10;;;2.80;;
20154;SDS011;10238;49.556;10.956;2023-05-16T14:42:56;2.45;;;2.28;;
20154;SDS011;10238;49.556;10.956;2023-05-16T14:45:44;2.42;;;2.13;;
20154;SDS011;10238;49.556;10.956;2023-05-16T14:48:32;3.47;;;2.00;;
20154;SDS011;10238;49.556;10.956;2023-05-16T14:51:20;2.78;;;1.95;;
20154;SDS011;10238;49.556;10.956;2023-05-16T14:54:07;2.10;;;2.00;;
20154;SDS011;10238;49.556;10.956;2023-05-16T14:57:01;2.30;;;2.20;;
20154;SDS011;10238;49.556;10.956;2023-05-16T14:59:51;3.03;;;1.90;;
20154;SDS011;10238;49.556;10.956;2023-05-16T15:02:39;2.13;;;2.03;;
20154;SDS011;10238;49.556;10.956;2023-05-16T15:05:27;2.00;;;1.80;;
20154;SDS011;10238;49.556;10.956;2023-05-16T15:08:15;2.08;;;1.80;;
20154;SDS011;10238;49.556;10.956;2023-05-16T15:11:03;2.80;;;2.20;;
20154;SDS011;10238;49.556;10.956;2023-05-16T15:13:51;2.45;;;1.90;;
20154;SDS011;10238;49.556;10.956;2023-05-16T15:16:40;2.20;;;2.10;;
20154;SDS011;10238;49.556;10.956;2023-05-16T15:19:28;2.15;;;2.05;;
20154;SDS011;10238;49.556;10.956;2023-05-16T15:22:17;4.07;;;2.10;;
20154;SDS011;10238;49.556;10.956;2023-05-16T15:25:05;2.45;;;2.13;;
20154;SDS011;10238;49.556;10.956;2023-05-16T15:27:55;3.72;;;2.65;;
20154;SDS011;10238;49.556;10.956;2023-05-16T15:30:42;3.25;;;3.03;;
20154;SDS011;10238;49.556;10.956;2023-05-16T15:33:31;3.97;;;3.65;;
20154;SDS011;10238;49.556;10.956;2023-05-16T15:36:19;6.35;;;6.05;;
20154;SDS011;10238;49.556;10.956;2023-05-16T15:39:09;5.82;;;5.53;;
20154;SDS011;10238;49.556;10.956;2023-05-16T15:41:57;6.70;;;6.38;;
20154;SDS011;10238;49.556;10.956;2023-05-16T15:44:54;9.02;;;8.45;;
20154;SDS011;10238;49.556;10.956;2023-05-16T15:47:41;12.90;;;12.30;;
20154;SDS011;10238;49.556;10.956;2023-05-16T15:50:30;6.60;;;6.25;;
20154;SDS011;10238;49.556;10.956;2023-05-16T15:53:18;2.20;;;2.10;;
20154;SDS011;10238;49.556;10.956;2023-05-16T15:56:07;2.22;;;2.10;;
20154;SDS011;10238;49.556;10.956;2023-05-16T15:58:55;2.65;;;2.53;;
20154;SDS011;10238;49.556;10.956;2023-05-16T16:01:43;2.75;;;2.55;;
20154;SDS011;10238;49.556;10.956;2023-05-16T16:04:30;3.75;;;2.70;;
20154;SDS011;10238;49.556;10.956;2023-05-16T16:07:21;3.15;;;2.30;;
20154;SDS011;10238;49.556;10.956;2023-05-16T16:10:09;3.08;;;2.85;;
20154;SDS011;10238;49.556;10.956;2023-05-16T16:12:58;6.10;;;5.70;;
20154;SDS011;10238;49.556;10.956;2023-05-16T16:15:46;6.75;;;6.35;;
20154;SDS011;10238;49.556;10.956;2023-05-16T16:18:34;4.93;;;4.53;;
20154;SDS011;10238;49.556;10.956;2023-05-16T16:21:22;5.15;;;4.80;;
20154;SDS011;10238;49.556;10.956;2023-05-16T16:24:11;6.65;;;6.30;;
20154;SDS011;10238;49.556;10.956;2023-05-16T16:26:59;9.93;;;9.43;;
20154;SDS011;10238;49.556;10.956;2023-05-16T16:29:48;7.15;;;6.65;;
20154;SDS011;10238;49.556;10.956;2023-05-16T16:32:36;4.43;;;4.13;;
20154;SDS011;10238;49.556;10.956;2023-05-16T16:35:24;3.50;;;3.20;;
20154;SDS011;10238;49.556;10.956;2023-05-16T16:38:13;4.32;;;2.85;;
20154;SDS011;10238;49.556;10.956;2023-05-16T16:41:03;2.90;;;2.70;;
20154;SDS011;10238;49.556;10.956;2023-05-16T16:43:51;2.53;;;2.35;;
20154;SDS011;10238;49.556;10.956;2023-05-16T16:46:38;3.35;;;2.50;;